sensor_id;sensor_type;location;lat;lon;timestamp;temperature;humidity
70300;HTU21D;57704;51.112;5.878;2023-03-31T00:01:49;12.22;80.02
70300;HTU21D;57704;51.112;5.878;2023-03-31T00:04:18;12.22;80.04
70300;HTU21D;57704;51.112;5.878;2023-03-31T00:06:48;12.26;80.07
70300;HTU21D;57704;51.112;5.878;2023-03-31T00:09:16;12.31;79.95
70300;HTU21D;57704;51.112;5.878;2023-03-31T00:11:44;12.32;79.98
70300;HTU21D;57704;51.112;5.878;2023-03-31T00:14:11;12.37;79.91
70300;HTU21D;57704;51.112;5.878;2023-03-31T00:16:38;12.43;79.87
70300;HTU21D;57704;51.112;5.878;2023-03-31T00:19:08;12.43;79.75
70300;HTU21D;57704;51.112;5.878;2023-03-31T00:21:37;12.45;79.82
70300;HTU21D;57704;51.112;5.878;2023-03-31T00:24:10;12.48;79.76
70300;HTU21D;57704;51.112;5.878;2023-03-31T00:26:37;12.52;79.56
70300;HTU21D;57704;51.112;5.878;2023-03-31T00:29:05;12.46;79.59
70300;HTU21D;57704;51.112;5.878;2023-03-31T00:31:32;12.42;79.74
70300;HTU21D;57704;51.112;5.878;2023-03-31T00:33:59;12.38;79.87
70300;HTU21D;57704;51.112;5.878;2023-03-31T00:36:26;12.36;79.91
70300;HTU21D;57704;51.112;5.878;2023-03-31T00:38:58;12.37;80.02
70300;HTU21D;57704;51.112;5.878;2023-03-31T00:41:27;12.35;79.92
70300;HTU21D;57704;51.112;5.878;2023-03-31T00:44:04;12.32;80.02
70300;HTU21D;57704;51.112;5.878;2023-03-31T00:46:56;12.31;80.04
70300;HTU21D;57704;51.112;5.878;2023-03-31T00:49:43;12.29;80.10
70300;HTU21D;57704;51.112;5.878;2023-03-31T00:52:17;12.26;80.20
70300;HTU21D;57704;51.112;5.878;2023-03-31T00:54:50;12.22;80.37
70300;HTU21D;57704;51.112;5.878;2023-03-31T00:57:20;12.19;80.37
70300;HTU21D;57704;51.112;5.878;2023-03-31T00:59:55;12.21;80.45
70300;HTU21D;57704;51.112;5.878;2023-03-31T01:02:23;12.26;80.36
70300;HTU21D;57704;51.112;5.878;2023-03-31T01:04:59;12.31;80.22
70300;HTU21D;57704;51.112;5.878;2023-03-31T01:07:47;12.31;80.32
70300;HTU21D;57704;51.112;5.878;2023-03-31T01:10:16;12.31;80.30
70300;HTU21D;57704;51.112;5.878;2023-03-31T01:12:49;12.31;80.35
70300;HTU21D;57704;51.112;5.878;2023-03-31T01:15:17;12.32;80.32
70300;HTU21D;57704;51.112;5.878;2023-03-31T01:17:44;12.32;80.62
70300;HTU21D;57704;51.112;5.878;2023-03-31T01:20:36;12.33;80.37
70300;HTU21D;57704;51.112;5.878;2023-03-31T01:43:15;12.25;81.79
70300;HTU21D;57704;51.112;5.878;2023-03-31T01:46:03;12.17;82.40
70300;HTU21D;57704;51.112;5.878;2023-03-31T01:54:24;12.13;82.71
70300;HTU21D;57704;51.112;5.878;2023-03-31T01:57:13;12.08;82.71
70300;HTU21D;57704;51.112;5.878;2023-03-31T02:00:02;12.07;82.79
70300;HTU21D;57704;51.112;5.878;2023-03-31T02:02:55;12.06;83.13
70300;HTU21D;57704;51.112;5.878;2023-03-31T02:05:36;12.03;83.09
70300;HTU21D;57704;51.112;5.878;2023-03-31T02:08:19;12.00;83.85
70300;HTU21D;57704;51.112;5.878;2023-03-31T02:10:51;11.96;83.42
70300;HTU21D;57704;51.112;5.878;2023-03-31T02:13:25;11.97;83.52
70300;HTU21D;57704;51.112;5.878;2023-03-31T02:16:01;11.93;83.57
70300;HTU21D;57704;51.112;5.878;2023-03-31T02:18:33;11.94;83.57
70300;HTU21D;57704;51.112;5.878;2023-03-31T02:21:06;11.96;83.60
70300;HTU21D;57704;51.112;5.878;2023-03-31T02:23:36;11.96;83.45
70300;HTU21D;57704;51.112;5.878;2023-03-31T02:28:37;11.90;83.55
70300;HTU21D;57704;51.112;5.878;2023-03-31T02:34:06;11.86;83.46
70300;HTU21D;57704;51.112;5.878;2023-03-31T02:36:35;11.83;83.47
70300;HTU21D;57704;51.112;5.878;2023-03-31T02:39:17;11.82;83.34
70300;HTU21D;57704;51.112;5.878;2023-03-31T02:41:45;11.81;83.26
70300;HTU21D;57704;51.112;5.878;2023-03-31T02:44:14;11.78;83.10
70300;HTU21D;57704;51.112;5.878;2023-03-31T02:46:43;11.78;83.04
70300;HTU21D;57704;51.112;5.878;2023-03-31T02:49:12;11.74;83.00
70300;HTU21D;57704;51.112;5.878;2023-03-31T03:00:31;11.81;81.96
70300;HTU21D;57704;51.112;5.878;2023-03-31T03:09:15;11.73;82.29
70300;HTU21D;57704;51.112;5.878;2023-03-31T03:17:46;11.68;82.26
70300;HTU21D;57704;51.112;5.878;2023-03-31T03:20:18;11.67;82.23
70300;HTU21D;57704;51.112;5.878;2023-03-31T03:22:45;11.68;82.11
70300;HTU21D;57704;51.112;5.878;2023-03-31T03:25:14;11.68;82.17
70300;HTU21D;57704;51.112;5.878;2023-03-31T03:27:45;11.68;82.34
70300;HTU21D;57704;51.112;5.878;2023-03-31T03:30:13;11.70;82.12
70300;HTU21D;57704;51.112;5.878;2023-03-31T03:32:40;11.73;82.04
70300;HTU21D;57704;51.112;5.878;2023-03-31T03:35:07;11.69;81.94
70300;HTU21D;57704;51.112;5.878;2023-03-31T03:37:33;11.72;81.76
70300;HTU21D;57704;51.112;5.878;2023-03-31T03:40:00;11.74;81.71
70300;HTU21D;57704;51.112;5.878;2023-03-31T03:42:26;11.74;81.65
70300;HTU21D;57704;51.112;5.878;2023-03-31T03:44:53;11.74;81.43
70300;HTU21D;57704;51.112;5.878;2023-03-31T03:47:20;11.79;80.78
70300;HTU21D;57704;51.112;5.878;2023-03-31T03:49:46;11.75;80.82
70300;HTU21D;57704;51.112;5.878;2023-03-31T03:52:14;11.75;80.73
70300;HTU21D;57704;51.112;5.878;2023-03-31T03:54:41;11.78;80.58
70300;HTU21D;57704;51.112;5.878;2023-03-31T03:57:08;11.84;80.48
70300;HTU21D;57704;51.112;5.878;2023-03-31T03:59:34;11.82;79.82
70300;HTU21D;57704;51.112;5.878;2023-03-31T04:02:01;11.81;79.90
70300;HTU21D;57704;51.112;5.878;2023-03-31T04:04:28;11.78;79.59
70300;HTU21D;57704;51.112;5.878;2023-03-31T04:06:54;11.75;79.76
70300;HTU21D;57704;51.112;5.878;2023-03-31T04:09:20;11.73;79.91
70300;HTU21D;57704;51.112;5.878;2023-03-31T04:11:47;11.74;79.77
70300;HTU21D;57704;51.112;5.878;2023-03-31T04:14:13;11.72;79.49
70300;HTU21D;57704;51.112;5.878;2023-03-31T04:16:40;11.75;79.23
70300;HTU21D;57704;51.112;5.878;2023-03-31T04:19:07;11.70;79.32
70300;HTU21D;57704;51.112;5.878;2023-03-31T04:21:36;11.71;79.11
70300;HTU21D;57704;51.112;5.878;2023-03-31T04:24:11;11.69;79.09
70300;HTU21D;57704;51.112;5.878;2023-03-31T04:26:46;11.70;79.18
70300;HTU21D;57704;51.112;5.878;2023-03-31T04:29:16;11.73;78.73
70300;HTU21D;57704;51.112;5.878;2023-03-31T04:31:42;11.71;78.88
70300;HTU21D;57704;51.112;5.878;2023-03-31T04:34:11;11.75;78.00
70300;HTU21D;57704;51.112;5.878;2023-03-31T04:36:47;11.73;78.28
70300;HTU21D;57704;51.112;5.878;2023-03-31T04:39:18;11.77;77.89
70300;HTU21D;57704;51.112;5.878;2023-03-31T04:41:59;11.78;77.47
70300;HTU21D;57704;51.112;5.878;2023-03-31T04:44:29;11.73;77.96
70300;HTU21D;57704;51.112;5.878;2023-03-31T04:46:56;11.68;78.30
70300;HTU21D;57704;51.112;5.878;2023-03-31T04:49:24;11.61;78.47
70300;HTU21D;57704;51.112;5.878;2023-03-31T04:51:50;11.57;78.75
70300;HTU21D;57704;51.112;5.878;2023-03-31T04:54:17;11.52;79.14
70300;HTU21D;57704;51.112;5.878;2023-03-31T04:56:44;11.49;79.14
70300;HTU21D;57704;51.112;5.878;2023-03-31T04:59:11;11.46;79.36
70300;HTU21D;57704;51.112;5.878;2023-03-31T05:01:37;11.48;79.40
70300;HTU21D;57704;51.112;5.878;2023-03-31T05:04:04;11.55;79.23
70300;HTU21D;57704;51.112;5.878;2023-03-31T05:06:32;11.56;78.95
70300;HTU21D;57704;51.112;5.878;2023-03-31T05:08:58;11.53;79.11
70300;HTU21D;57704;51.112;5.878;2023-03-31T05:11:25;11.61;78.86
70300;HTU21D;57704;51.112;5.878;2023-03-31T05:13:52;11.51;79.39
70300;HTU21D;57704;51.112;5.878;2023-03-31T05:16:22;11.45;79.83
70300;HTU21D;57704;51.112;5.878;2023-03-31T05:18:50;11.40;80.49
70300;HTU21D;57704;51.112;5.878;2023-03-31T05:21:19;11.33;80.51
70300;HTU21D;57704;51.112;5.878;2023-03-31T05:23:48;11.32;80.80
70300;HTU21D;57704;51.112;5.878;2023-03-31T05:26:17;11.29;80.97
70300;HTU21D;57704;51.112;5.878;2023-03-31T05:28:44;11.28;81.12
70300;HTU21D;57704;51.112;5.878;2023-03-31T05:31:12;11.27;81.63
70300;HTU21D;57704;51.112;5.878;2023-03-31T05:33:39;11.25;81.26
70300;HTU21D;57704;51.112;5.878;2023-03-31T05:36:08;11.22;81.49
70300;HTU21D;57704;51.112;5.878;2023-03-31T05:38:35;11.18;81.76
70300;HTU21D;57704;51.112;5.878;2023-03-31T05:41:02;11.19;81.84
70300;HTU21D;57704;51.112;5.878;2023-03-31T05:43:29;11.24;81.84
70300;HTU21D;57704;51.112;5.878;2023-03-31T05:45:55;11.27;82.20
70300;HTU21D;57704;51.112;5.878;2023-03-31T05:48:22;11.24;81.88
70300;HTU21D;57704;51.112;5.878;2023-03-31T05:50:49;11.22;81.92
70300;HTU21D;57704;51.112;5.878;2023-03-31T05:53:17;11.18;82.47
70300;HTU21D;57704;51.112;5.878;2023-03-31T05:55:44;11.13;82.76
70300;HTU21D;57704;51.112;5.878;2023-03-31T05:58:10;11.14;83.38
70300;HTU21D;57704;51.112;5.878;2023-03-31T06:00:37;11.12;83.04
70300;HTU21D;57704;51.112;5.878;2023-03-31T06:03:04;11.18;83.18
70300;HTU21D;57704;51.112;5.878;2023-03-31T06:05:34;11.14;83.42
70300;HTU21D;57704;51.112;5.878;2023-03-31T06:08:01;11.14;83.81
70300;HTU21D;57704;51.112;5.878;2023-03-31T06:10:32;11.13;83.43
70300;HTU21D;57704;51.112;5.878;2023-03-31T06:13:01;11.17;83.52
70300;HTU21D;57704;51.112;5.878;2023-03-31T06:15:31;11.16;83.87
70300;HTU21D;57704;51.112;5.878;2023-03-31T06:17:57;11.13;84.03
70300;HTU21D;57704;51.112;5.878;2023-03-31T06:20:24;11.13;84.00
70300;HTU21D;57704;51.112;5.878;2023-03-31T06:22:50;11.11;84.24
70300;HTU21D;57704;51.112;5.878;2023-03-31T06:25:16;11.14;84.44
70300;HTU21D;57704;51.112;5.878;2023-03-31T06:27:42;11.20;84.36
70300;HTU21D;57704;51.112;5.878;2023-03-31T06:30:09;11.24;84.32
70300;HTU21D;57704;51.112;5.878;2023-03-31T06:32:35;11.28;84.18
70300;HTU21D;57704;51.112;5.878;2023-03-31T06:35:01;11.29;84.29
70300;HTU21D;57704;51.112;5.878;2023-03-31T06:37:27;11.29;84.32
70300;HTU21D;57704;51.112;5.878;2023-03-31T06:39:54;11.31;84.26
70300;HTU21D;57704;51.112;5.878;2023-03-31T06:42:20;11.39;84.10
70300;HTU21D;57704;51.112;5.878;2023-03-31T06:44:47;11.41;84.22
70300;HTU21D;57704;51.112;5.878;2023-03-31T06:47:13;11.51;83.93
70300;HTU21D;57704;51.112;5.878;2023-03-31T06:49:39;11.49;83.94
70300;HTU21D;57704;51.112;5.878;2023-03-31T06:52:05;11.47;83.87
70300;HTU21D;57704;51.112;5.878;2023-03-31T06:54:32;11.44;83.91
70300;HTU21D;57704;51.112;5.878;2023-03-31T06:56:58;11.43;83.92
70300;HTU21D;57704;51.112;5.878;2023-03-31T06:59:25;11.42;83.95
70300;HTU21D;57704;51.112;5.878;2023-03-31T07:01:51;11.42;84.13
70300;HTU21D;57704;51.112;5.878;2023-03-31T07:04:17;11.46;84.12
70300;HTU21D;57704;51.112;5.878;2023-03-31T07:06:44;11.49;84.07
70300;HTU21D;57704;51.112;5.878;2023-03-31T07:09:11;11.51;83.90
70300;HTU21D;57704;51.112;5.878;2023-03-31T07:11:37;11.53;83.99
70300;HTU21D;57704;51.112;5.878;2023-03-31T07:14:04;11.60;83.90
70300;HTU21D;57704;51.112;5.878;2023-03-31T07:16:30;11.67;83.72
70300;HTU21D;57704;51.112;5.878;2023-03-31T07:19:01;11.70;83.79
70300;HTU21D;57704;51.112;5.878;2023-03-31T07:21:29;11.71;83.66
70300;HTU21D;57704;51.112;5.878;2023-03-31T07:23:55;11.73;84.10
70300;HTU21D;57704;51.112;5.878;2023-03-31T07:26:22;11.79;83.84
70300;HTU21D;57704;51.112;5.878;2023-03-31T07:28:49;11.89;84.13
70300;HTU21D;57704;51.112;5.878;2023-03-31T07:31:16;12.06;84.53
70300;HTU21D;57704;51.112;5.878;2023-03-31T07:33:43;12.31;84.61
70300;HTU21D;57704;51.112;5.878;2023-03-31T07:36:09;12.48;83.57
70300;HTU21D;57704;51.112;5.878;2023-03-31T07:38:36;12.56;83.53
70300;HTU21D;57704;51.112;5.878;2023-03-31T07:41:03;12.80;84.12
70300;HTU21D;57704;51.112;5.878;2023-03-31T07:43:29;13.01;82.84
70300;HTU21D;57704;51.112;5.878;2023-03-31T07:45:55;13.04;81.91
70300;HTU21D;57704;51.112;5.878;2023-03-31T07:48:21;12.99;80.73
70300;HTU21D;57704;51.112;5.878;2023-03-31T07:50:48;12.88;81.34
70300;HTU21D;57704;51.112;5.878;2023-03-31T07:53:25;12.85;81.14
70300;HTU21D;57704;51.112;5.878;2023-03-31T07:55:52;12.80;81.11
70300;HTU21D;57704;51.112;5.878;2023-03-31T07:58:18;12.77;80.91
70300;HTU21D;57704;51.112;5.878;2023-03-31T08:00:44;12.84;80.69
70300;HTU21D;57704;51.112;5.878;2023-03-31T08:03:10;12.82;80.65
70300;HTU21D;57704;51.112;5.878;2023-03-31T08:05:37;12.88;80.71
70300;HTU21D;57704;51.112;5.878;2023-03-31T08:08:03;13.08;80.88
70300;HTU21D;57704;51.112;5.878;2023-03-31T08:10:31;13.26;79.37
70300;HTU21D;57704;51.112;5.878;2023-03-31T08:12:58;13.31;78.33
70300;HTU21D;57704;51.112;5.878;2023-03-31T08:15:24;13.30;78.49
70300;HTU21D;57704;51.112;5.878;2023-03-31T08:17:51;13.36;78.59
70300;HTU21D;57704;51.112;5.878;2023-03-31T08:20:18;13.45;78.85
70300;HTU21D;57704;51.112;5.878;2023-03-31T08:22:45;13.56;78.07
70300;HTU21D;57704;51.112;5.878;2023-03-31T08:25:12;13.66;77.96
70300;HTU21D;57704;51.112;5.878;2023-03-31T08:27:43;13.76;76.40
70300;HTU21D;57704;51.112;5.878;2023-03-31T08:30:14;13.76;76.64
70300;HTU21D;57704;51.112;5.878;2023-03-31T08:32:41;13.80;75.93
70300;HTU21D;57704;51.112;5.878;2023-03-31T08:35:07;13.81;75.97
70300;HTU21D;57704;51.112;5.878;2023-03-31T08:37:35;13.82;75.25
70300;HTU21D;57704;51.112;5.878;2023-03-31T08:40:06;13.78;75.81
70300;HTU21D;57704;51.112;5.878;2023-03-31T08:42:47;13.85;74.59
70300;HTU21D;57704;51.112;5.878;2023-03-31T08:47:51;13.94;74.62
70300;HTU21D;57704;51.112;5.878;2023-03-31T08:50:24;13.99;74.33
70300;HTU21D;57704;51.112;5.878;2023-03-31T08:55:42;14.03;71.99
70300;HTU21D;57704;51.112;5.878;2023-03-31T08:58:43;13.85;73.70
70300;HTU21D;57704;51.112;5.878;2023-03-31T09:10:16;13.81;72.79
70300;HTU21D;57704;51.112;5.878;2023-03-31T09:15:41;14.03;72.13
70300;HTU21D;57704;51.112;5.878;2023-03-31T09:18:26;14.13;70.39
70300;HTU21D;57704;51.112;5.878;2023-03-31T09:21:25;14.19;70.42
70300;HTU21D;57704;51.112;5.878;2023-03-31T09:29:41;14.67;67.19
70300;HTU21D;57704;51.112;5.878;2023-03-31T09:32:21;14.79;67.91
70300;HTU21D;57704;51.112;5.878;2023-03-31T09:34:56;14.95;68.78
70300;HTU21D;57704;51.112;5.878;2023-03-31T09:37:30;15.17;67.91
70300;HTU21D;57704;51.112;5.878;2023-03-31T09:40:04;15.28;65.31
70300;HTU21D;57704;51.112;5.878;2023-03-31T09:42:35;15.27;66.07
70300;HTU21D;57704;51.112;5.878;2023-03-31T09:45:02;15.23;65.03
70300;HTU21D;57704;51.112;5.878;2023-03-31T09:47:38;15.13;66.22
70300;HTU21D;57704;51.112;5.878;2023-03-31T09:50:09;14.78;67.13
70300;HTU21D;57704;51.112;5.878;2023-03-31T09:52:40;14.38;69.02
70300;HTU21D;57704;51.112;5.878;2023-03-31T09:55:21;14.14;69.59
70300;HTU21D;57704;51.112;5.878;2023-03-31T09:57:48;14.11;70.03
70300;HTU21D;57704;51.112;5.878;2023-03-31T10:00:19;13.99;70.38
70300;HTU21D;57704;51.112;5.878;2023-03-31T10:03:01;13.75;71.25
70300;HTU21D;57704;51.112;5.878;2023-03-31T10:16:22;13.41;73.09
70300;HTU21D;57704;51.112;5.878;2023-03-31T10:22:03;13.22;73.84
70300;HTU21D;57704;51.112;5.878;2023-03-31T10:24:38;13.23;74.49
70300;HTU21D;57704;51.112;5.878;2023-03-31T10:27:23;13.47;73.71
70300;HTU21D;57704;51.112;5.878;2023-03-31T10:30:03;13.65;73.33
70300;HTU21D;57704;51.112;5.878;2023-03-31T10:32:37;13.89;72.35
70300;HTU21D;57704;51.112;5.878;2023-03-31T10:35:29;14.00;72.38
70300;HTU21D;57704;51.112;5.878;2023-03-31T10:38:03;14.12;69.79
70300;HTU21D;57704;51.112;5.878;2023-03-31T10:40:34;14.33;71.38
70300;HTU21D;57704;51.112;5.878;2023-03-31T10:45:48;14.88;69.99
70300;HTU21D;57704;51.112;5.878;2023-03-31T10:48:30;15.18;68.45
70300;HTU21D;57704;51.112;5.878;2023-03-31T10:53:44;15.51;66.51
70300;HTU21D;57704;51.112;5.878;2023-03-31T11:01:36;15.56;67.39
70300;HTU21D;57704;51.112;5.878;2023-03-31T11:07:13;16.29;65.37
70300;HTU21D;57704;51.112;5.878;2023-03-31T11:26:54;14.89;67.62
70300;HTU21D;57704;51.112;5.878;2023-03-31T11:29:40;14.68;68.63
70300;HTU21D;57704;51.112;5.878;2023-03-31T11:43:35;15.54;67.79
70300;HTU21D;57704;51.112;5.878;2023-03-31T11:46:21;15.62;67.12
70300;HTU21D;57704;51.112;5.878;2023-03-31T11:48:57;15.74;66.63
70300;HTU21D;57704;51.112;5.878;2023-03-31T11:51:33;15.91;66.68
70300;HTU21D;57704;51.112;5.878;2023-03-31T11:54:06;16.24;66.53
70300;HTU21D;57704;51.112;5.878;2023-03-31T11:56:39;16.46;64.40
70300;HTU21D;57704;51.112;5.878;2023-03-31T11:59:12;16.60;64.05
70300;HTU21D;57704;51.112;5.878;2023-03-31T12:02:00;16.72;63.89
70300;HTU21D;57704;51.112;5.878;2023-03-31T12:04:40;17.15;62.52
70300;HTU21D;57704;51.112;5.878;2023-03-31T12:07:28;17.33;60.70
70300;HTU21D;57704;51.112;5.878;2023-03-31T12:13:06;17.05;59.96
70300;HTU21D;57704;51.112;5.878;2023-03-31T12:15:41;17.20;58.64
70300;HTU21D;57704;51.112;5.878;2023-03-31T12:18:15;17.04;58.86
70300;HTU21D;57704;51.112;5.878;2023-03-31T12:20:51;16.98;58.69
70300;HTU21D;57704;51.112;5.878;2023-03-31T12:23:23;16.95;59.13
70300;HTU21D;57704;51.112;5.878;2023-03-31T12:26:03;16.96;57.78
70300;HTU21D;57704;51.112;5.878;2023-03-31T12:28:36;16.99;58.25
70300;HTU21D;57704;51.112;5.878;2023-03-31T12:31:17;16.70;57.80
70300;HTU21D;57704;51.112;5.878;2023-03-31T12:33:56;16.64;58.47
70300;HTU21D;57704;51.112;5.878;2023-03-31T12:36:44;16.55;57.93
70300;HTU21D;57704;51.112;5.878;2023-03-31T12:39:33;16.41;57.02
70300;HTU21D;57704;51.112;5.878;2023-03-31T12:44:50;16.44;58.51
70300;HTU21D;57704;51.112;5.878;2023-03-31T12:55:40;16.46;57.46
70300;HTU21D;57704;51.112;5.878;2023-03-31T13:01:20;16.40;57.38
70300;HTU21D;57704;51.112;5.878;2023-03-31T13:11:44;16.17;57.76
70300;HTU21D;57704;51.112;5.878;2023-03-31T13:14:19;16.20;56.58
70300;HTU21D;57704;51.112;5.878;2023-03-31T13:16:52;16.24;57.04
70300;HTU21D;57704;51.112;5.878;2023-03-31T13:19:36;16.32;56.61
70300;HTU21D;57704;51.112;5.878;2023-03-31T13:22:26;16.39;55.93
70300;HTU21D;57704;51.112;5.878;2023-03-31T13:24:53;16.40;56.02
70300;HTU21D;57704;51.112;5.878;2023-03-31T13:27:31;16.34;55.78
70300;HTU21D;57704;51.112;5.878;2023-03-31T13:29:58;16.22;56.49
70300;HTU21D;57704;51.112;5.878;2023-03-31T13:32:27;16.06;58.30
70300;HTU21D;57704;51.112;5.878;2023-03-31T13:35:01;15.66;59.39
70300;HTU21D;57704;51.112;5.878;2023-03-31T13:43:24;14.60;64.79
70300;HTU21D;57704;51.112;5.878;2023-03-31T13:48:47;14.29;66.31
70300;HTU21D;57704;51.112;5.878;2023-03-31T13:54:24;13.86;69.41
70300;HTU21D;57704;51.112;5.878;2023-03-31T13:57:11;13.63;70.03
70300;HTU21D;57704;51.112;5.878;2023-03-31T14:05:30;13.17;72.64
70300;HTU21D;57704;51.112;5.878;2023-03-31T14:10:53;13.46;74.76
70300;HTU21D;57704;51.112;5.878;2023-03-31T14:13:24;13.82;74.93
70300;HTU21D;57704;51.112;5.878;2023-03-31T14:15:57;13.99;74.14
70300;HTU21D;57704;51.112;5.878;2023-03-31T14:18:27;13.95;73.81
70300;HTU21D;57704;51.112;5.878;2023-03-31T14:24:22;14.05;73.78
70300;HTU21D;57704;51.112;5.878;2023-03-31T14:30:13;13.86;73.68
70300;HTU21D;57704;51.112;5.878;2023-03-31T14:36:12;13.77;74.47
70300;HTU21D;57704;51.112;5.878;2023-03-31T14:38:41;13.84;74.38
70300;HTU21D;57704;51.112;5.878;2023-03-31T14:41:16;13.88;74.33
70300;HTU21D;57704;51.112;5.878;2023-03-31T14:43:48;13.98;74.38
70300;HTU21D;57704;51.112;5.878;2023-03-31T14:46:20;14.07;74.22
70300;HTU21D;57704;51.112;5.878;2023-03-31T14:48:48;14.15;73.42
70300;HTU21D;57704;51.112;5.878;2023-03-31T14:51:27;14.11;70.89
70300;HTU21D;57704;51.112;5.878;2023-03-31T14:53:58;13.98;70.90
70300;HTU21D;57704;51.112;5.878;2023-03-31T14:56:38;13.92;72.13
70300;HTU21D;57704;51.112;5.878;2023-03-31T14:59:08;13.94;71.71
70300;HTU21D;57704;51.112;5.878;2023-03-31T15:01:37;13.92;71.72
70300;HTU21D;57704;51.112;5.878;2023-03-31T15:04:13;13.89;71.92
70300;HTU21D;57704;51.112;5.878;2023-03-31T15:06:45;13.90;71.28
70300;HTU21D;57704;51.112;5.878;2023-03-31T15:09:20;13.93;71.33
70300;HTU21D;57704;51.112;5.878;2023-03-31T15:12:27;14.03;69.71
70300;HTU21D;57704;51.112;5.878;2023-03-31T15:15:04;13.90;70.17
70300;HTU21D;57704;51.112;5.878;2023-03-31T15:17:38;13.79;70.74
70300;HTU21D;57704;51.112;5.878;2023-03-31T15:22:55;13.74;70.07
70300;HTU21D;57704;51.112;5.878;2023-03-31T15:25:30;13.67;69.81
70300;HTU21D;57704;51.112;5.878;2023-03-31T15:28:05;13.64;70.26
70300;HTU21D;57704;51.112;5.878;2023-03-31T15:30:33;13.68;70.29
70300;HTU21D;57704;51.112;5.878;2023-03-31T15:33:01;13.67;70.11
70300;HTU21D;57704;51.112;5.878;2023-03-31T15:35:34;13.64;70.14
70300;HTU21D;57704;51.112;5.878;2023-03-31T15:38:05;13.58;70.74
70300;HTU21D;57704;51.112;5.878;2023-03-31T15:40:38;13.59;70.24
70300;HTU21D;57704;51.112;5.878;2023-03-31T15:45:56;13.63;70.12
70300;HTU21D;57704;51.112;5.878;2023-03-31T15:48:34;13.51;70.40
70300;HTU21D;57704;51.112;5.878;2023-03-31T15:51:13;13.41;71.02
70300;HTU21D;57704;51.112;5.878;2023-03-31T15:53:48;13.32;71.52
70300;HTU21D;57704;51.112;5.878;2023-03-31T15:56:41;13.21;72.03
70300;HTU21D;57704;51.112;5.878;2023-03-31T15:59:25;13.09;72.34
70300;HTU21D;57704;51.112;5.878;2023-03-31T16:01:55;12.94;73.19
70300;HTU21D;57704;51.112;5.878;2023-03-31T16:04:35;12.79;74.52
70300;HTU21D;57704;51.112;5.878;2023-03-31T16:07:34;12.60;75.31
70300;HTU21D;57704;51.112;5.878;2023-03-31T16:10:16;12.45;76.23
70300;HTU21D;57704;51.112;5.878;2023-03-31T16:12:51;12.35;77.64
70300;HTU21D;57704;51.112;5.878;2023-03-31T16:15:34;12.27;77.22
70300;HTU21D;57704;51.112;5.878;2023-03-31T16:18:11;12.26;77.86
70300;HTU21D;57704;51.112;5.878;2023-03-31T16:20:51;12.15;78.12
70300;HTU21D;57704;51.112;5.878;2023-03-31T16:23:24;12.17;78.47
70300;HTU21D;57704;51.112;5.878;2023-03-31T16:25:53;12.11;79.62
70300;HTU21D;57704;51.112;5.878;2023-03-31T16:28:26;12.04;79.06
70300;HTU21D;57704;51.112;5.878;2023-03-31T16:30:54;12.00;79.19
70300;HTU21D;57704;51.112;5.878;2023-03-31T16:33:22;11.99;79.53
70300;HTU21D;57704;51.112;5.878;2023-03-31T16:35:53;12.01;79.23
70300;HTU21D;57704;51.112;5.878;2023-03-31T16:38:29;11.96;79.90
70300;HTU21D;57704;51.112;5.878;2023-03-31T16:40:58;12.00;79.03
70300;HTU21D;57704;51.112;5.878;2023-03-31T16:43:28;11.94;79.76
70300;HTU21D;57704;51.112;5.878;2023-03-31T16:46:00;11.90;80.13
70300;HTU21D;57704;51.112;5.878;2023-03-31T16:48:31;11.89;79.91
70300;HTU21D;57704;51.112;5.878;2023-03-31T16:51:01;11.89;79.82
70300;HTU21D;57704;51.112;5.878;2023-03-31T16:53:32;11.86;80.14
70300;HTU21D;57704;51.112;5.878;2023-03-31T16:56:00;11.86;79.92
70300;HTU21D;57704;51.112;5.878;2023-03-31T16:58:27;11.86;79.79
70300;HTU21D;57704;51.112;5.878;2023-03-31T17:00:56;11.85;80.11
70300;HTU21D;57704;51.112;5.878;2023-03-31T17:03:23;11.86;79.61
70300;HTU21D;57704;51.112;5.878;2023-03-31T17:05:56;11.89;79.90
70300;HTU21D;57704;51.112;5.878;2023-03-31T17:08:25;11.88;79.44
70300;HTU21D;57704;51.112;5.878;2023-03-31T17:10:54;11.89;80.26
70300;HTU21D;57704;51.112;5.878;2023-03-31T17:13:23;11.97;79.40
70300;HTU21D;57704;51.112;5.878;2023-03-31T17:15:51;11.89;79.64
70300;HTU21D;57704;51.112;5.878;2023-03-31T17:18:18;11.89;79.67
70300;HTU21D;57704;51.112;5.878;2023-03-31T17:20:45;11.86;80.00
70300;HTU21D;57704;51.112;5.878;2023-03-31T17:23:15;11.85;79.45
70300;HTU21D;57704;51.112;5.878;2023-03-31T17:25:51;11.86;79.66
70300;HTU21D;57704;51.112;5.878;2023-03-31T17:28:18;11.86;79.39
70300;HTU21D;57704;51.112;5.878;2023-03-31T17:30:47;11.86;79.08
70300;HTU21D;57704;51.112;5.878;2023-03-31T17:33:16;11.89;78.11
70300;HTU21D;57704;51.112;5.878;2023-03-31T17:35:43;11.87;77.98
70300;HTU21D;57704;51.112;5.878;2023-03-31T17:38:10;11.89;77.69
70300;HTU21D;57704;51.112;5.878;2023-03-31T17:40:40;11.90;77.44
70300;HTU21D;57704;51.112;5.878;2023-03-31T17:43:07;11.96;77.06
70300;HTU21D;57704;51.112;5.878;2023-03-31T17:45:34;12.02;76.53
70300;HTU21D;57704;51.112;5.878;2023-03-31T17:48:00;12.05;76.08
70300;HTU21D;57704;51.112;5.878;2023-03-31T17:50:27;12.11;75.86
70300;HTU21D;57704;51.112;5.878;2023-03-31T17:52:54;12.12;74.65
70300;HTU21D;57704;51.112;5.878;2023-03-31T17:55:20;12.10;75.66
70300;HTU21D;57704;51.112;5.878;2023-03-31T17:57:48;12.08;75.76
70300;HTU21D;57704;51.112;5.878;2023-03-31T18:00:15;12.11;75.58
70300;HTU21D;57704;51.112;5.878;2023-03-31T18:02:42;12.05;75.00
70300;HTU21D;57704;51.112;5.878;2023-03-31T18:05:09;12.08;75.16
70300;HTU21D;57704;51.112;5.878;2023-03-31T18:07:37;12.08;75.31
70300;HTU21D;57704;51.112;5.878;2023-03-31T18:10:04;12.11;75.18
70300;HTU21D;57704;51.112;5.878;2023-03-31T18:12:33;12.07;75.85
70300;HTU21D;57704;51.112;5.878;2023-03-31T18:15:02;12.01;76.28
70300;HTU21D;57704;51.112;5.878;2023-03-31T18:17:30;11.97;76.64
70300;HTU21D;57704;51.112;5.878;2023-03-31T18:19:56;11.89;77.10
70300;HTU21D;57704;51.112;5.878;2023-03-31T18:22:24;11.82;77.54
70300;HTU21D;57704;51.112;5.878;2023-03-31T18:24:51;11.81;77.81
70300;HTU21D;57704;51.112;5.878;2023-03-31T18:27:18;11.72;78.96
70300;HTU21D;57704;51.112;5.878;2023-03-31T18:29:44;11.62;78.98
70300;HTU21D;57704;51.112;5.878;2023-03-31T18:32:11;11.55;79.66
70300;HTU21D;57704;51.112;5.878;2023-03-31T18:34:38;11.54;79.82
70300;HTU21D;57704;51.112;5.878;2023-03-31T18:37:07;11.49;79.95
70300;HTU21D;57704;51.112;5.878;2023-03-31T18:39:35;11.54;79.89
70300;HTU21D;57704;51.112;5.878;2023-03-31T18:42:02;11.48;80.25
70300;HTU21D;57704;51.112;5.878;2023-03-31T18:44:29;11.48;80.57
70300;HTU21D;57704;51.112;5.878;2023-03-31T18:46:56;11.48;80.56
70300;HTU21D;57704;51.112;5.878;2023-03-31T18:49:23;11.48;80.55
70300;HTU21D;57704;51.112;5.878;2023-03-31T18:51:50;11.48;80.51
70300;HTU21D;57704;51.112;5.878;2023-03-31T18:54:17;11.54;79.92